Huey, Pennsylvania
Current Conditions -  °F | °C
As of 10:55 AM on Friday 24 Oct 2014 (Local Time) from KBTP Reporting Station
Broken Clouds Broken Clouds  
Wind Chill: 44°   Ceiling: 2000
Heat Index: 46°   Visibility: 10mi
Dew Point: 41°   Wind: 5mph
Humidity: 81%   Direction: 240°WSW
Pressure: 30.11"   Gusts: NA
Location:  41.041°N, 79.5243°W
Report Text: KBTP 241455Z AUTO 24004KT 10SM BKN020 08/05 A3011 RMK AO1 54000
Loading
Personal Weather Stations






























Interactive Weather Map
Tropical Storm Tracking
New forecast layout! Learn more

10-Day Weather Forecast

Advertisements
Track Severe Weather on mobile